Startpagina
METAR-TAF:

METAR-TAF

Vliegvelden :

Koror, Babelthuap Island, Palau

Roman Tmetuchl International Airport

breedte: 07-22N, lengte: 134-32E, hoogte: 54 m

Actueel weer

Dit bericht is 35 minuten geleden gemaakt, om 12:50 UTC
Weinig wind
Temperatuur 24°C
Vochtigheid 100%
Druk 1011 hPa
Zicht: 22.5 km
Gebroken wolken op 1600 ft, Cumulonimbus.
Geheel bewolkt op 29000 ft

METAR: PTRO 191250Z 00000KT 14SM BKN016CB OVC290 24/24 A2986 RMK CB ALQDS

Tijdstip: 22:25 (13:25 UTC)

Verwachting

Dit bericht is 1 uur en het 48 minuten geleden gemaakt, om 11:37 UTC
Verwachting geldig van 19 om 12 UTC tot 20 om 12 UTC
Wind 6 kt uit variabele richting
Zicht: 9.7 km
Gebroken wolken op 1600 ft
Geheel bewolkt op 12000 ft
lichte regenbuien
Van 19 om 2000 UTC
Wind 6 kt uit het westen
Zicht: 10 km
Verspreide wolken op 1600 ft
Gebroken wolken op 12000 ft
buien in de omgeving

TAF: PTRO 191137Z 1912/2012 VRB06KT 6SM -SHRA BKN016 OVC120 FM192000 28006KT P6SM VCSH SCT016 BKN120

Waarnemingen en weersverwachtingen van meer dan 4000 vliegvelden (METAR en TAF).

De beschikbare stations zijn de gele en rode punten op de kaart.

Ga met uw muis naar het station om de naam te zien.

Klik dan om waarnemingen en weersverwachtingen te zien.

kaart wijzigen: klik op de groene knoppen met een zwart kruis om in te zoomen, op de groene knop met een streepje om uit te zoomen of op de groene pijlen voor aangrenzende kaarten.


METAR-TAF: